createdAt,value
2023-05-11T00:08:15.555Z,59.69
2023-05-11T00:18:37.937Z,59.69
2023-05-11T00:28:59.014Z,60.18
2023-05-11T00:39:20.346Z,60.08
2023-05-11T00:49:41.933Z,59.30
2023-05-11T01:00:04.622Z,59.87
2023-05-11T01:10:42.982Z,58.77
2023-05-11T01:21:05.456Z,59.13
2023-05-11T01:31:33.363Z,58.58
2023-05-11T01:41:56.011Z,59.01
2023-05-11T01:52:18.716Z,59.17
2023-05-11T02:02:40.751Z,58.88
2023-05-11T02:13:04.114Z,59.10
2023-05-11T02:23:26.626Z,58.65
2023-05-11T02:33:52.150Z,58.46
2023-05-11T02:44:16.200Z,58.18
2023-05-11T02:54:38.646Z,58.27
2023-05-11T03:05:00.114Z,58.64
2023-05-11T03:15:22.688Z,58.06
2023-05-11T03:25:47.462Z,58.12
2023-05-11T03:36:11.154Z,58.00
2023-05-11T03:46:33.370Z,58.21
2023-05-11T03:56:56.489Z,57.89
2023-05-11T04:07:18.167Z,57.82
2023-05-11T04:17:39.437Z,57.73
2023-05-11T04:28:00.907Z,57.81
2023-05-11T04:38:23.151Z,58.16
2023-05-11T04:48:44.589Z,57.34
2023-05-11T04:59:10.048Z,57.43
2023-05-11T05:09:31.706Z,57.35
2023-05-11T05:19:53.354Z,57.61
2023-05-11T05:30:14.943Z,57.56
2023-05-11T05:40:37.953Z,57.80
2023-05-11T05:51:00.474Z,57.37
2023-05-11T06:01:22.693Z,57.09
2023-05-11T06:11:44.593Z,56.84
2023-05-11T06:22:06.969Z,56.78
2023-05-11T06:32:29.777Z,56.30
2023-05-11T06:42:52.293Z,56.26
2023-05-11T06:53:14.255Z,55.88
2023-05-11T07:03:36.382Z,56.11
2023-05-11T07:13:57.643Z,55.76
2023-05-11T07:24:19.074Z,55.59
2023-05-11T07:34:41.401Z,55.52
2023-05-11T07:45:02.779Z,55.36
2023-05-11T07:55:26.782Z,55.14
2023-05-11T08:05:47.959Z,54.71
2023-05-11T08:16:09.978Z,54.43
2023-05-11T08:26:31.271Z,54.29
2023-05-11T08:36:53.434Z,54.05
2023-05-11T08:57:40.821Z,53.67
2023-05-11T09:08:04.670Z,53.44
2023-05-11T09:18:26.667Z,53.16
2023-05-11T09:29:02.891Z,52.93
2023-05-11T09:39:44.116Z,52.52
2023-05-11T09:50:18.636Z,51.98
2023-05-11T10:00:56.743Z,51.35
2023-05-11T10:11:18.459Z,51.42
2023-05-11T10:21:39.903Z,51.51
2023-05-11T10:32:02.239Z,51.57
2023-05-11T10:42:37.570Z,51.43
2023-05-11T10:53:07.827Z,50.78
2023-05-11T11:03:29.519Z,50.72
2023-05-11T11:14:02.972Z,50.68
2023-05-11T11:24:39.199Z,50.54
2023-05-11T11:35:00.346Z,50.32
2023-05-11T11:45:31.705Z,49.97
2023-05-11T11:55:53.157Z,50.08
2023-05-11T12:06:14.973Z,50.44
2023-05-11T12:16:36.005Z,51.01
2023-05-11T12:26:57.696Z,50.36
2023-05-11T12:37:19.368Z,50.30
2023-05-11T12:47:40.804Z,50.56
2023-05-11T12:58:16.473Z,50.31
2023-05-11T13:08:38.220Z,50.86
2023-05-11T13:19:08.164Z,50.34
2023-05-11T13:29:29.435Z,50.45
2023-05-11T13:39:50.688Z,50.26
2023-05-11T13:50:12.271Z,50.55
2023-05-11T14:00:35.457Z,50.18
2023-05-11T14:10:56.721Z,50.31
2023-05-11T14:21:17.970Z,50.47
2023-05-11T14:31:39.107Z,50.32
2023-05-11T14:42:00.576Z,50.14
2023-05-11T14:52:21.853Z,50.33
2023-05-11T15:02:43.168Z,50.56
2023-05-11T15:13:04.203Z,50.66
2023-05-11T15:23:26.229Z,50.53
2023-05-11T15:33:47.686Z,49.98
2023-05-11T15:44:08.954Z,50.10
2023-05-11T15:54:30.284Z,50.30
2023-05-11T16:04:52.261Z,50.34
2023-05-11T16:15:13.476Z,50.44
2023-05-11T16:25:34.913Z,50.78
2023-05-11T16:35:56.044Z,51.06
2023-05-11T16:46:17.284Z,50.96
2023-05-11T16:56:38.298Z,50.87
2023-05-11T17:06:59.935Z,51.33
2023-05-11T17:17:21.345Z,51.55
2023-05-11T17:27:42.612Z,51.73
2023-05-11T17:38:05.680Z,51.46
2023-05-11T17:48:26.544Z,52.01
2023-05-11T17:58:48.126Z,52.37
2023-05-11T18:09:12.815Z,52.29
2023-05-11T18:19:33.829Z,52.17
2023-05-11T18:29:55.304Z,52.37
2023-05-11T18:40:17.075Z,52.58
2023-05-11T18:50:39.016Z,52.43
2023-05-11T19:01:00.178Z,52.47
2023-05-11T19:11:21.567Z,52.50
2023-05-11T19:21:44.120Z,52.43
2023-05-11T19:32:05.564Z,52.97
2023-05-11T19:42:38.465Z,52.77
2023-05-11T19:53:00.795Z,52.98
2023-05-11T20:03:22.347Z,52.83
2023-05-11T20:13:45.258Z,52.93
2023-05-11T20:24:06.537Z,52.88
2023-05-11T20:34:28.067Z,52.84
2023-05-11T20:44:50.574Z,52.85
2023-05-11T20:55:12.331Z,52.79
2023-05-11T21:05:33.706Z,52.76
2023-05-11T21:15:55.177Z,52.65
2023-05-11T21:26:16.578Z,52.68
2023-05-11T21:36:39.282Z,52.72
2023-05-11T21:47:00.972Z,52.28
2023-05-11T21:57:22.203Z,52.60
2023-05-11T22:07:44.077Z,52.54
2023-05-11T22:18:05.517Z,52.46
2023-05-11T22:28:26.972Z,51.85
2023-05-11T22:38:48.041Z,51.59
2023-05-11T22:49:09.402Z,51.24
2023-05-11T22:59:34.558Z,51.50
2023-05-11T23:09:56.118Z,51.74
2023-05-11T23:20:17.439Z,51.02
2023-05-11T23:30:39.296Z,51.87
2023-05-11T23:41:00.339Z,51.57
2023-05-11T23:51:21.303Z,52.11
